createdAt,value
2022-12-08T00:01:34.134Z,1.61
2022-12-08T00:04:04.078Z,1.61
2022-12-08T00:06:56.006Z,1.60
2022-12-08T00:09:24.026Z,1.62
2022-12-08T00:12:02.804Z,1.68
2022-12-08T00:14:34.148Z,1.68
2022-12-08T00:17:03.533Z,1.65
2022-12-08T00:19:32.078Z,1.64
2022-12-08T00:22:00.047Z,1.66
2022-12-08T00:24:32.364Z,1.71
2022-12-08T00:27:00.875Z,1.69
2022-12-08T00:29:28.939Z,1.69
2022-12-08T00:31:57.006Z,1.62
2022-12-08T00:34:24.998Z,1.59
2022-12-08T00:36:52.962Z,1.59
2022-12-08T00:39:20.895Z,1.59
2022-12-08T00:42:07.290Z,1.57
2022-12-08T00:44:35.226Z,1.55
2022-12-08T00:47:03.062Z,1.58
2022-12-08T00:49:30.955Z,1.63
2022-12-08T00:51:58.880Z,1.64
2022-12-08T00:54:26.824Z,1.63
2022-12-08T00:56:54.711Z,1.63
2022-12-08T00:59:22.674Z,1.63
2022-12-08T01:01:50.808Z,1.67
2022-12-08T01:04:19.914Z,1.69
2022-12-08T01:06:48.588Z,1.69
2022-12-08T01:09:17.863Z,1.67
2022-12-08T01:11:46.271Z,1.70
2022-12-08T01:14:14.704Z,1.73
2022-12-08T01:16:43.760Z,1.73
2022-12-08T01:19:13.969Z,1.71
2022-12-08T01:21:43.000Z,1.69
2022-12-08T01:24:16.257Z,1.72
2022-12-08T01:26:44.767Z,1.76
2022-12-08T01:29:13.219Z,1.79
2022-12-08T01:31:41.201Z,1.76
2022-12-08T01:34:10.655Z,1.76
2022-12-08T01:36:39.230Z,1.77
2022-12-08T01:39:10.646Z,1.78
2022-12-08T01:41:39.567Z,1.77
2022-12-08T01:44:08.419Z,1.77
2022-12-08T01:46:39.623Z,1.75
2022-12-08T01:49:35.287Z,1.75
2022-12-08T01:52:14.797Z,1.75
2022-12-08T01:54:49.481Z,1.71
2022-12-08T01:57:24.077Z,1.71
2022-12-08T01:59:56.309Z,1.70
2022-12-08T02:02:29.602Z,1.68
2022-12-08T02:04:57.670Z,1.65
2022-12-08T02:07:25.610Z,1.65
2022-12-08T02:09:54.105Z,1.65
2022-12-08T02:12:22.163Z,1.67
2022-12-08T02:14:50.479Z,1.69
2022-12-08T02:18:07.608Z,1.66
2022-12-08T02:20:35.477Z,1.64
2022-12-08T02:23:15.496Z,1.65
2022-12-08T02:26:07.859Z,1.66
2022-12-08T02:28:56.706Z,1.66
2022-12-08T02:31:43.129Z,1.63
2022-12-08T02:34:29.420Z,1.60
2022-12-08T02:37:19.203Z,1.62
2022-12-08T02:40:03.113Z,1.62
2022-12-08T02:43:03.869Z,1.59
2022-12-08T02:45:39.734Z,1.57
2022-12-08T02:48:09.203Z,1.59
2022-12-08T02:50:37.112Z,1.63
2022-12-08T02:55:55.538Z,1.57
2022-12-08T02:59:02.328Z,1.57
2022-12-08T03:01:49.040Z,1.57
2022-12-08T03:04:46.147Z,1.53
2022-12-08T03:07:28.178Z,1.50
2022-12-08T03:10:03.125Z,1.50
2022-12-08T03:12:42.209Z,1.52
2022-12-08T03:15:14.426Z,1.48
2022-12-08T03:17:47.376Z,1.45
2022-12-08T03:20:23.978Z,1.43
2022-12-08T03:22:55.675Z,1.41
2022-12-08T03:25:30.464Z,1.43
2022-12-08T03:27:59.756Z,1.42
2022-12-08T03:30:32.155Z,1.41
2022-12-08T03:33:27.583Z,1.38
2022-12-08T03:35:55.795Z,1.37
2022-12-08T03:38:23.768Z,1.40
2022-12-08T03:41:10.136Z,1.41
2022-12-08T03:43:38.064Z,1.36
2022-12-08T03:46:06.019Z,1.34
2022-12-08T03:48:33.900Z,1.34
2022-12-08T03:51:01.785Z,1.35
2022-12-08T03:53:29.694Z,1.33
2022-12-08T03:55:57.579Z,1.31
2022-12-08T03:58:25.587Z,1.27
2022-12-08T04:00:53.556Z,1.25
2022-12-08T04:03:21.495Z,1.26
2022-12-08T04:05:49.413Z,1.28
2022-12-08T04:08:17.322Z,1.30
2022-12-08T04:10:45.257Z,1.28
2022-12-08T04:13:13.138Z,1.24
2022-12-08T04:15:46.249Z,1.22
2022-12-08T04:18:14.982Z,1.22
2022-12-08T04:20:44.402Z,1.26
2022-12-08T04:23:12.975Z,1.27
2022-12-08T04:25:41.059Z,1.27
2022-12-08T04:28:09.049Z,1.25
2022-12-08T04:30:36.908Z,1.21
2022-12-08T04:33:04.857Z,1.23
2022-12-08T04:35:32.887Z,1.27
2022-12-08T04:38:00.835Z,1.33
2022-12-08T04:40:28.773Z,1.30
2022-12-08T04:42:56.657Z,1.28
2022-12-08T04:45:24.627Z,1.26
2022-12-08T04:47:52.543Z,1.24
2022-12-08T04:50:20.442Z,1.25
2022-12-08T04:52:48.396Z,1.30
2022-12-08T04:55:16.434Z,1.35
2022-12-08T04:57:44.361Z,1.39
2022-12-08T05:00:13.734Z,1.38
2022-12-08T05:02:41.813Z,1.37
2022-12-08T05:05:10.004Z,1.35
2022-12-08T05:07:38.069Z,1.34
2022-12-08T05:10:07.127Z,1.36
2022-12-08T05:12:35.220Z,1.41
2022-12-08T05:15:04.087Z,1.45
2022-12-08T05:17:31.940Z,1.49
2022-12-08T05:19:59.861Z,1.50
2022-12-08T05:22:27.909Z,1.52
2022-12-08T05:24:55.765Z,1.51
2022-12-08T05:27:23.930Z,1.52
2022-12-08T05:29:52.105Z,1.51
2022-12-08T05:32:20.193Z,1.51
2022-12-08T05:34:48.172Z,1.52
2022-12-08T05:37:16.110Z,1.50
2022-12-08T05:39:44.031Z,1.48
2022-12-08T05:42:11.923Z,1.45
2022-12-08T05:44:39.804Z,1.41
2022-12-08T05:47:07.740Z,1.39
2022-12-08T05:49:35.621Z,1.41
2022-12-08T05:52:03.781Z,1.48
2022-12-08T05:54:31.674Z,1.53
2022-12-08T05:57:00.091Z,1.55
2022-12-08T05:59:27.927Z,1.51
2022-12-08T06:01:55.854Z,1.48
2022-12-08T06:04:23.767Z,1.48
2022-12-08T06:06:51.664Z,1.47
2022-12-08T06:09:19.703Z,1.48
2022-12-08T06:11:47.737Z,1.48
2022-12-08T06:14:15.631Z,1.48
2022-12-08T06:16:43.651Z,1.48
2022-12-08T06:19:11.698Z,1.49
2022-12-08T06:21:39.653Z,1.48
2022-12-08T06:24:07.849Z,1.48
2022-12-08T06:26:36.224Z,1.49
2022-12-08T06:29:05.068Z,1.50
2022-12-08T06:31:33.123Z,1.54
2022-12-08T06:34:01.072Z,1.56
2022-12-08T06:36:29.367Z,1.57
2022-12-08T06:38:58.052Z,1.59
2022-12-08T06:41:26.852Z,1.60
2022-12-08T06:43:58.575Z,1.60
2022-12-08T06:46:26.703Z,1.59
2022-12-08T06:48:54.636Z,1.57
2022-12-08T06:51:23.545Z,1.53
2022-12-08T06:53:51.496Z,1.48
2022-12-08T06:56:20.535Z,1.44
2022-12-08T06:58:52.411Z,1.41
2022-12-08T07:01:21.243Z,1.47
2022-12-08T07:03:49.287Z,1.51
2022-12-08T07:06:20.941Z,1.55
2022-12-08T07:08:48.927Z,1.59
2022-12-08T07:11:21.532Z,1.63
2022-12-08T07:13:51.213Z,1.63
2022-12-08T07:16:19.381Z,1.61
2022-12-08T07:18:47.448Z,1.57
2022-12-08T07:21:16.635Z,1.55
2022-12-08T07:23:54.356Z,1.57
2022-12-08T07:26:26.854Z,1.61
2022-12-08T07:28:54.875Z,1.60
2022-12-08T07:31:25.216Z,1.62
2022-12-08T07:33:53.652Z,1.65
2022-12-08T07:36:22.489Z,1.66
2022-12-08T07:38:53.670Z,1.67
2022-12-08T07:41:27.291Z,1.71
2022-12-08T07:43:59.094Z,1.76
2022-12-08T07:46:27.234Z,1.84
2022-12-08T07:48:55.527Z,1.92
2022-12-08T07:51:25.077Z,2.00
2022-12-08T07:53:54.883Z,2.07
2022-12-08T07:56:23.870Z,2.16
2022-12-08T07:58:51.815Z,2.24
2022-12-08T08:01:27.971Z,2.32
2022-12-08T08:03:58.134Z,2.38
2022-12-08T08:06:26.054Z,2.39
2022-12-08T08:08:54.747Z,2.44
2022-12-08T08:11:23.118Z,2.49
2022-12-08T08:13:51.641Z,2.55
2022-12-08T08:16:20.477Z,2.61
2022-12-08T08:18:52.403Z,2.66
2022-12-08T08:21:44.405Z,2.73
2022-12-08T08:24:09.568Z,2.80
2022-12-08T08:26:38.013Z,2.81
2022-12-08T08:29:06.020Z,2.79
2022-12-08T08:31:34.000Z,2.80
2022-12-08T08:34:06.356Z,2.87
2022-12-08T08:36:34.823Z,2.97
2022-12-08T08:39:04.137Z,3.04
2022-12-08T08:41:32.128Z,3.11
2022-12-08T08:44:00.092Z,3.15
2022-12-08T08:46:28.078Z,3.17
2022-12-08T08:48:56.733Z,3.14
2022-12-08T08:51:24.816Z,3.14
2022-12-08T08:53:52.776Z,3.17
2022-12-08T08:56:20.848Z,3.15
2022-12-08T08:58:49.808Z,3.17
2022-12-08T09:01:21.239Z,3.20
2022-12-08T09:03:49.514Z,3.25
2022-12-08T09:06:18.741Z,3.27
2022-12-08T09:08:46.856Z,3.33
2022-12-08T09:11:15.524Z,3.31
2022-12-08T09:13:43.460Z,3.29
2022-12-08T09:16:12.694Z,3.27
2022-12-08T09:18:40.791Z,3.25
2022-12-08T09:21:16.487Z,3.27
2022-12-08T09:23:44.472Z,3.28
2022-12-08T09:26:12.410Z,3.30
2022-12-08T09:28:46.193Z,3.32
2022-12-08T09:31:14.744Z,3.38
2022-12-08T09:33:43.230Z,3.44
2022-12-08T09:36:11.646Z,3.50
2022-12-08T09:38:43.188Z,3.56
2022-12-08T09:41:52.143Z,3.55
2022-12-08T09:44:59.877Z,3.52
2022-12-08T09:47:44.070Z,3.47
2022-12-08T09:50:14.677Z,3.45
2022-12-08T09:53:01.554Z,3.45
2022-12-08T09:55:39.160Z,3.46
2022-12-08T09:58:17.640Z,3.47
2022-12-08T10:00:45.702Z,3.50
2022-12-08T10:03:16.805Z,3.53
2022-12-08T10:05:54.061Z,3.60
2022-12-08T10:08:32.349Z,3.65
2022-12-08T10:11:11.326Z,3.66
2022-12-08T10:13:54.780Z,3.63
2022-12-08T10:16:34.423Z,3.63
2022-12-08T10:19:17.929Z,3.62
2022-12-08T10:21:46.091Z,3.59
2022-12-08T10:24:23.601Z,3.56
2022-12-08T10:26:51.649Z,3.54
2022-12-08T10:29:19.571Z,3.51
2022-12-08T10:31:47.671Z,3.50
2022-12-08T10:34:24.245Z,3.49
2022-12-08T10:37:22.087Z,3.50
2022-12-08T10:39:59.267Z,3.52
2022-12-08T10:42:35.301Z,3.50
2022-12-08T10:45:09.181Z,3.49
2022-12-08T10:47:44.586Z,3.48
2022-12-08T10:50:23.567Z,3.52
2022-12-08T10:53:08.660Z,3.57
2022-12-08T10:56:08.943Z,3.61
2022-12-08T10:58:41.053Z,3.60
2022-12-08T11:01:17.331Z,3.60
2022-12-08T11:03:49.740Z,3.56
2022-12-08T11:06:34.528Z,3.51
2022-12-08T11:09:04.754Z,3.48
2022-12-08T11:11:54.400Z,3.48
2022-12-08T11:14:38.102Z,3.45
2022-12-08T11:17:09.521Z,3.42
2022-12-08T11:19:39.451Z,3.39
2022-12-08T11:22:40.136Z,3.42
2022-12-08T11:25:07.996Z,3.47
2022-12-08T11:27:38.275Z,3.48
2022-12-08T11:30:15.821Z,3.48
2022-12-08T11:32:46.580Z,3.46
2022-12-08T11:35:42.760Z,3.45
2022-12-08T11:38:32.055Z,3.40
2022-12-08T11:41:36.101Z,3.37
2022-12-08T11:44:28.166Z,3.31
2022-12-08T11:47:01.028Z,3.25
2022-12-08T11:49:41.120Z,3.20
2022-12-08T11:52:24.355Z,3.20
2022-12-08T11:55:01.381Z,3.23
2022-12-08T11:57:30.347Z,3.24
2022-12-08T11:59:58.815Z,3.19
2022-12-08T12:02:30.973Z,3.17
2022-12-08T12:05:07.421Z,3.12
2022-12-08T12:07:47.513Z,3.09
2022-12-08T12:10:36.984Z,3.04
2022-12-08T12:13:30.826Z,3.01
2022-12-08T12:15:58.786Z,2.97
2022-12-08T12:18:40.611Z,2.96
2022-12-08T12:21:19.540Z,2.95
2022-12-08T12:24:23.819Z,2.95
2022-12-08T12:27:43.874Z,2.93
2022-12-08T12:30:31.948Z,2.93
2022-12-08T12:33:02.408Z,2.87
2022-12-08T12:35:36.051Z,2.83
2022-12-08T12:38:37.486Z,2.80
2022-12-08T12:41:08.350Z,2.81
2022-12-08T12:43:38.639Z,2.87
2022-12-08T12:46:27.603Z,2.95
2022-12-08T12:49:34.386Z,2.99
2022-12-08T12:52:02.352Z,2.97
2022-12-08T12:54:30.458Z,2.88
2022-12-08T12:57:16.407Z,2.84
2022-12-08T12:59:53.411Z,2.81
2022-12-08T13:02:30.961Z,2.80
2022-12-08T13:05:01.776Z,2.78
2022-12-08T13:07:36.203Z,2.77
2022-12-08T13:10:16.388Z,2.80
2022-12-08T13:12:45.764Z,2.79
2022-12-08T13:15:20.931Z,2.76
2022-12-08T13:17:49.478Z,2.70
2022-12-08T13:20:24.417Z,2.63
2022-12-08T13:23:27.613Z,2.59
2022-12-08T13:26:15.064Z,2.61
2022-12-08T13:29:04.135Z,2.56
2022-12-08T13:31:59.859Z,2.51
2022-12-08T13:34:41.760Z,2.50
2022-12-08T13:37:13.637Z,2.48
2022-12-08T13:40:16.326Z,2.48
2022-12-08T13:42:51.154Z,2.51
2022-12-08T13:45:59.179Z,2.56
2022-12-08T13:49:03.309Z,2.58
2022-12-08T13:53:34.181Z,2.54
2022-12-08T13:57:14.281Z,2.59
2022-12-08T13:59:45.807Z,2.64
2022-12-08T14:02:47.084Z,2.66
2022-12-08T14:05:40.742Z,2.73
2022-12-08T14:08:57.913Z,2.85
2022-12-08T14:11:34.398Z,2.93
2022-12-08T14:14:53.758Z,2.96
2022-12-08T14:17:16.351Z,3.01
2022-12-08T14:19:53.308Z,3.05
2022-12-08T14:22:21.323Z,3.04
2022-12-08T14:24:53.965Z,3.03
2022-12-08T14:27:25.100Z,3.00
2022-12-08T14:29:58.731Z,2.96
2022-12-08T14:32:31.544Z,2.98
2022-12-08T14:35:08.654Z,3.00
2022-12-08T14:37:41.502Z,3.06
2022-12-08T14:40:22.697Z,3.10
2022-12-08T14:43:08.707Z,3.06
2022-12-08T14:45:42.678Z,2.96
2022-12-08T14:48:23.567Z,2.86
2022-12-08T14:51:21.091Z,2.78
2022-12-08T14:53:54.882Z,2.69
2022-12-08T14:56:26.897Z,2.64
2022-12-08T14:59:16.691Z,2.65
2022-12-08T15:01:48.183Z,2.73
2022-12-08T15:04:24.554Z,2.80
2022-12-08T15:06:59.810Z,2.83
2022-12-08T15:09:35.088Z,2.84
2022-12-08T15:12:26.363Z,2.83
2022-12-08T15:14:57.156Z,2.81
2022-12-08T15:17:40.336Z,2.82
2022-12-08T15:20:34.868Z,2.83
2022-12-08T15:23:04.364Z,2.84
2022-12-08T15:25:32.712Z,2.84
2022-12-08T15:28:02.688Z,2.81
2022-12-08T15:30:31.329Z,2.76
2022-12-08T15:32:59.406Z,2.72
2022-12-08T15:35:28.004Z,2.66
2022-12-08T15:37:55.950Z,2.59
2022-12-08T15:40:26.066Z,2.56
2022-12-08T15:42:54.316Z,2.54
2022-12-08T15:45:30.857Z,2.51
2022-12-08T15:47:58.755Z,2.48
2022-12-08T15:50:26.738Z,2.49
2022-12-08T15:52:54.667Z,2.48
2022-12-08T15:55:22.818Z,2.46
2022-12-08T16:00:57.963Z,2.40
2022-12-08T16:09:44.389Z,2.24
2022-12-08T16:13:13.856Z,2.21
2022-12-08T16:15:59.033Z,2.34
2022-12-08T16:18:25.053Z,3.21
2022-12-08T16:21:22.732Z,4.85
2022-12-08T16:24:08.897Z,6.35
2022-12-08T16:29:55.426Z,7.80
2022-12-08T16:32:24.253Z,8.05
2022-12-08T16:34:52.696Z,7.97
2022-12-08T16:37:26.229Z,8.24
2022-12-08T16:39:57.120Z,8.69
2022-12-08T16:42:52.138Z,8.66
2022-12-08T16:45:23.919Z,9.20
2022-12-08T16:48:00.000Z,9.28
2022-12-08T16:50:34.937Z,9.32
2022-12-08T16:53:09.282Z,9.04
2022-12-08T16:55:37.214Z,9.08
2022-12-08T16:58:06.113Z,9.10
2022-12-08T17:00:37.562Z,9.89
2022-12-08T17:03:10.480Z,10.47
2022-12-08T17:05:41.281Z,10.81
2022-12-08T17:08:09.761Z,11.08
2022-12-08T17:10:39.505Z,11.31
2022-12-08T17:13:07.899Z,11.47
2022-12-08T17:15:35.872Z,11.84
2022-12-08T17:18:04.017Z,12.16
2022-12-08T17:20:34.161Z,11.98
2022-12-08T17:23:02.154Z,11.25
2022-12-08T17:25:30.066Z,10.76
2022-12-08T17:27:57.957Z,10.33
2022-12-08T17:30:25.931Z,9.86
2022-12-08T17:32:54.500Z,9.66
2022-12-08T17:35:22.483Z,8.88
2022-12-08T17:37:50.485Z,8.31
2022-12-08T17:40:28.007Z,8.29
2022-12-08T17:43:21.234Z,8.15
2022-12-08T17:45:53.933Z,8.31
2022-12-08T17:48:21.976Z,7.89
2022-12-08T17:50:49.961Z,7.39
2022-12-08T17:53:17.936Z,7.21
2022-12-08T17:55:57.134Z,7.05
2022-12-08T17:58:25.972Z,7.23
2022-12-08T18:01:00.889Z,7.32
2022-12-08T18:03:28.905Z,7.97
2022-12-08T18:06:07.244Z,8.16
2022-12-08T18:08:35.829Z,8.04
2022-12-08T18:11:14.192Z,7.67
2022-12-08T18:13:48.751Z,7.02
2022-12-08T18:16:17.754Z,7.00
2022-12-08T18:18:46.042Z,6.59
2022-12-08T18:21:16.365Z,6.14
2022-12-08T18:23:49.625Z,5.86
2022-12-08T18:26:17.712Z,6.38
2022-12-08T18:28:45.635Z,6.55
2022-12-08T18:31:17.696Z,6.81
2022-12-08T18:33:46.981Z,7.00
2022-12-08T18:36:23.809Z,7.16
2022-12-08T18:38:53.230Z,6.96
2022-12-08T18:41:28.471Z,7.35
2022-12-08T18:44:04.066Z,7.37
2022-12-08T18:46:32.169Z,6.92
2022-12-08T18:49:00.247Z,6.62
2022-12-08T18:51:28.335Z,6.41
2022-12-08T18:53:58.501Z,6.39
2022-12-08T18:56:34.498Z,6.58
2022-12-08T18:59:14.620Z,6.84
2022-12-08T19:01:42.743Z,7.08
2022-12-08T19:06:58.827Z,8.09
2022-12-08T19:09:30.196Z,7.81
2022-12-08T19:11:58.427Z,7.69
2022-12-08T19:14:28.407Z,7.74
2022-12-08T19:16:57.846Z,7.94
2022-12-08T19:19:36.901Z,8.01
2022-12-08T19:22:04.911Z,8.01
2022-12-08T19:24:35.051Z,7.51
2022-12-08T19:27:04.311Z,7.38
2022-12-08T19:29:32.352Z,7.17
2022-12-08T19:32:00.476Z,6.94
2022-12-08T19:34:28.457Z,6.95
2022-12-08T19:37:01.949Z,6.73
2022-12-08T19:40:02.152Z,6.60
2022-12-08T19:42:48.612Z,6.42
2022-12-08T19:45:21.793Z,6.23
2022-12-08T19:47:49.887Z,6.40
2022-12-08T19:50:36.178Z,6.27
2022-12-08T19:53:07.791Z,6.02
2022-12-08T19:56:03.199Z,5.87
2022-12-08T19:58:31.199Z,5.51
2022-12-08T20:00:59.209Z,5.23
2022-12-08T20:03:27.307Z,5.13
2022-12-08T20:05:55.438Z,5.51
2022-12-08T20:08:23.506Z,6.00
2022-12-08T20:10:51.724Z,6.26
2022-12-08T20:13:38.363Z,6.49
2022-12-08T20:16:06.850Z,6.41
2022-12-08T20:18:36.729Z,6.47
2022-12-08T20:21:08.511Z,6.47
2022-12-08T20:23:36.718Z,6.91
2022-12-08T20:26:08.513Z,6.74
2022-12-08T20:28:39.268Z,6.48
2022-12-08T20:31:07.437Z,6.59
2022-12-08T20:33:35.522Z,6.93
2022-12-08T20:36:05.817Z,6.85
2022-12-08T20:38:33.754Z,6.65
2022-12-08T20:41:01.791Z,6.41
2022-12-08T20:43:29.829Z,6.06
2022-12-08T20:45:58.385Z,5.90
2022-12-08T20:48:26.434Z,5.80
2022-12-08T20:50:55.086Z,5.70
2022-12-08T20:53:23.126Z,5.55
2022-12-08T20:55:51.193Z,5.39
2022-12-08T20:58:40.918Z,5.27
2022-12-08T21:01:11.358Z,5.33
2022-12-08T21:03:39.749Z,5.16
2022-12-08T21:06:08.916Z,5.03
2022-12-08T21:08:37.872Z,4.88
2022-12-08T21:11:06.645Z,4.69
2022-12-08T21:13:43.481Z,4.70
2022-12-08T21:16:17.184Z,4.59
2022-12-08T21:18:45.254Z,4.35
2022-12-08T21:21:15.201Z,4.21
2022-12-08T21:23:43.880Z,4.12
2022-12-08T21:26:15.362Z,3.82
2022-12-08T21:28:48.260Z,3.65
2022-12-08T21:31:19.067Z,3.72
2022-12-08T21:33:48.232Z,3.82
2022-12-08T21:36:18.819Z,3.83
2022-12-08T21:38:47.697Z,4.08
2022-12-08T21:41:41.996Z,4.23
2022-12-08T21:44:12.581Z,4.33
2022-12-08T21:46:41.644Z,4.37
2022-12-08T21:49:09.888Z,4.34
2022-12-08T21:51:42.287Z,4.62
2022-12-08T21:54:18.796Z,4.77
2022-12-08T21:56:48.819Z,5.00
2022-12-08T21:59:18.482Z,4.85
2022-12-08T22:01:46.934Z,4.49
2022-12-08T22:04:21.211Z,4.11
2022-12-08T22:06:49.732Z,3.73
2022-12-08T22:09:17.921Z,3.48
2022-12-08T22:11:46.068Z,3.33
2022-12-08T22:14:15.236Z,3.21
2022-12-08T22:16:44.399Z,3.11
2022-12-08T22:19:12.795Z,2.99
2022-12-08T22:21:41.545Z,2.85
2022-12-08T22:24:09.810Z,2.82
2022-12-08T22:26:37.864Z,2.80
2022-12-08T22:29:05.980Z,2.78
2022-12-08T22:31:34.124Z,2.73
2022-12-08T22:34:02.154Z,2.65
2022-12-08T22:36:30.173Z,2.54
2022-12-08T22:38:58.374Z,2.43
2022-12-08T22:41:26.405Z,2.36
2022-12-08T22:43:54.581Z,2.31
2022-12-08T22:46:24.989Z,2.33
2022-12-08T22:48:54.280Z,2.34
2022-12-08T22:51:22.456Z,2.32
2022-12-08T22:53:51.340Z,2.29
2022-12-08T22:56:20.158Z,2.22
2022-12-08T22:58:48.355Z,2.13
2022-12-08T23:01:23.109Z,2.12
2022-12-08T23:03:51.338Z,2.14
2022-12-08T23:06:19.994Z,2.19
2022-12-08T23:08:48.610Z,2.18
2022-12-08T23:11:17.271Z,2.20
2022-12-08T23:13:45.378Z,2.19
2022-12-08T23:16:13.385Z,2.14
2022-12-08T23:18:43.581Z,2.08
2022-12-08T23:21:15.538Z,2.03
2022-12-08T23:23:43.911Z,2.04
2022-12-08T23:26:24.805Z,2.10
2022-12-08T23:28:53.371Z,2.15
2022-12-08T23:31:25.470Z,2.14
2022-12-08T23:33:54.391Z,2.17
2022-12-08T23:36:26.255Z,2.19
2022-12-08T23:38:54.867Z,2.13
2022-12-08T23:41:23.044Z,2.08
2022-12-08T23:43:52.081Z,2.05
2022-12-08T23:46:22.071Z,2.05
2022-12-08T23:48:51.583Z,2.07
2022-12-08T23:51:20.064Z,2.12
2022-12-08T23:53:48.138Z,2.17
2022-12-08T23:56:17.975Z,2.12
2022-12-08T23:58:46.696Z,2.05
